Terminal Aerodrome Forecast
Issued by NWS

Current Version | Previous Version | Text Only | Print | Product List | Glossary On
Versions: 1 2 3 4 5 6 7 8 9 10 11 12 13
000
FTUS43 KILX 301725
TAFDEC
TAF
KDEC 301725Z 3018/3118 20005KT P6SM SCT035 BKN050
     FM310100 17004KT P6SM SCT250
     FM310600 18004KT 4SM BR SCT250
     FM311100 19005KT 2SM BR FEW250
     FM311500 20008KT 5SM HZ SCT250=

USA.gov is the U.S. government's official web portal to all federal, state and local government web resources and services.